createdAt,value
2019-06-26T00:00:47.445Z,24.04
2019-06-26T00:03:15.892Z,24.02
2019-06-26T00:05:44.335Z,24.06
2019-06-26T00:08:12.790Z,24.02
2019-06-26T00:10:41.223Z,24.01
2019-06-26T00:13:24.850Z,23.95
2019-06-26T00:15:39.108Z,23.95
2019-06-26T00:18:07.517Z,24.28
2019-06-26T00:20:36.097Z,23.95
2019-06-26T00:23:04.559Z,23.89
2019-06-26T00:25:33.212Z,23.86
2019-06-26T00:28:01.653Z,23.83
2019-06-26T00:30:30.086Z,23.85
2019-06-26T00:32:58.535Z,23.83
2019-06-26T00:35:26.982Z,23.80
2019-06-26T00:37:55.497Z,23.76
2019-06-26T00:40:23.965Z,23.74
2019-06-26T00:42:52.414Z,23.71
2019-06-26T00:45:20.862Z,23.70
2019-06-26T00:47:49.301Z,23.69
2019-06-26T00:50:18.170Z,23.69
2019-06-26T00:52:46.603Z,23.65
2019-06-26T00:55:15.111Z,23.64
2019-06-26T00:57:43.550Z,23.61
2019-06-26T01:00:12.635Z,23.59
2019-06-26T01:02:41.070Z,23.56
2019-06-26T01:05:11.324Z,23.55
2019-06-26T01:07:39.024Z,23.52
2019-06-26T01:10:09.707Z,23.85
2019-06-26T01:12:38.168Z,23.51
2019-06-26T01:15:07.337Z,23.43
2019-06-26T01:17:35.764Z,23.42
2019-06-26T01:20:07.599Z,23.41
2019-06-26T01:22:36.036Z,23.37
2019-06-26T01:25:05.805Z,23.35
2019-06-26T01:27:34.269Z,23.34
2019-06-26T01:30:03.310Z,23.38
2019-06-26T01:32:31.945Z,23.35
2019-06-26T01:35:00.418Z,23.36
2019-06-26T01:37:29.867Z,23.33
2019-06-26T01:39:58.306Z,23.29
2019-06-26T01:42:26.748Z,23.32
2019-06-26T01:44:55.194Z,23.30
2019-06-26T01:47:23.649Z,23.29
2019-06-26T01:49:52.145Z,23.29
2019-06-26T01:52:21.245Z,23.27
2019-06-26T01:54:49.675Z,23.27
2019-06-26T01:57:18.111Z,23.24
2019-06-26T01:59:46.589Z,23.25
2019-06-26T02:02:15.026Z,23.25
2019-06-26T02:04:43.466Z,23.24
2019-06-26T02:07:11.901Z,23.25
2019-06-26T02:09:40.342Z,23.22
2019-06-26T02:12:08.768Z,23.17
2019-06-26T02:14:37.220Z,23.14
2019-06-26T02:17:05.655Z,23.16
2019-06-26T02:19:34.187Z,23.13
2019-06-26T02:22:02.635Z,23.10
2019-06-26T02:24:31.070Z,23.08
2019-06-26T02:26:59.582Z,23.08
2019-06-26T02:29:28.023Z,23.05
2019-06-26T02:31:56.481Z,23.05
2019-06-26T02:34:24.909Z,23.01
2019-06-26T02:36:53.369Z,23.05
2019-06-26T02:39:21.815Z,22.98
2019-06-26T02:41:50.271Z,22.99
2019-06-26T02:44:18.733Z,22.96
2019-06-26T02:46:47.177Z,22.96
2019-06-26T02:49:15.621Z,22.95
2019-06-26T02:51:44.047Z,22.96
2019-06-26T02:54:12.509Z,22.98
2019-06-26T02:56:40.952Z,22.95
2019-06-26T02:59:09.393Z,22.95
2019-06-26T03:01:37.819Z,22.95
2019-06-26T03:04:06.291Z,22.94
2019-06-26T03:06:34.707Z,22.96
2019-06-26T03:09:03.152Z,22.96
2019-06-26T03:11:31.605Z,22.95
2019-06-26T03:14:00.074Z,22.94
2019-06-26T03:16:28.526Z,22.94
2019-06-26T03:18:56.967Z,22.95
2019-06-26T03:21:25.411Z,22.96
2019-06-26T03:23:53.844Z,22.99
2019-06-26T03:26:22.284Z,23.02
2019-06-26T03:28:50.725Z,23.00
2019-06-26T03:31:19.163Z,23.00
2019-06-26T03:33:47.600Z,23.04
2019-06-26T03:36:16.065Z,23.07
2019-06-26T03:38:44.507Z,23.06
2019-06-26T03:41:13.116Z,23.10
2019-06-26T03:43:41.565Z,23.12
2019-06-26T03:46:09.996Z,23.14
2019-06-26T03:48:38.517Z,23.17
2019-06-26T03:51:06.956Z,23.18
2019-06-26T03:53:35.404Z,23.19
2019-06-26T03:56:03.821Z,23.26
2019-06-26T03:58:32.322Z,23.27
2019-06-26T04:01:00.774Z,23.27
2019-06-26T04:03:29.270Z,22.98
2019-06-26T04:05:57.703Z,23.40
2019-06-26T04:08:26.154Z,23.39
2019-06-26T04:10:54.584Z,23.49
2019-06-26T04:13:23.016Z,23.49
2019-06-26T04:15:51.450Z,23.60
2019-06-26T04:18:19.879Z,23.67
2019-06-26T04:20:48.330Z,23.69
2019-06-26T04:23:16.761Z,23.80
2019-06-26T04:25:45.186Z,23.87
2019-06-26T04:28:13.645Z,23.95
2019-06-26T04:30:42.076Z,24.07
2019-06-26T04:33:10.516Z,24.14
2019-06-26T04:35:38.953Z,24.28
2019-06-26T04:38:07.384Z,24.34
2019-06-26T04:40:35.823Z,24.49
2019-06-26T04:43:04.258Z,24.64
2019-06-26T04:45:32.686Z,24.74
2019-06-26T04:48:01.126Z,24.82
2019-06-26T04:50:29.568Z,25.01
2019-06-26T04:52:57.992Z,25.11
2019-06-26T04:55:26.452Z,25.27
2019-06-26T04:57:54.880Z,25.37
2019-06-26T05:00:24.372Z,25.46
2019-06-26T05:02:52.795Z,25.60
2019-06-26T05:05:21.284Z,25.74
2019-06-26T05:07:49.733Z,25.85
2019-06-26T05:10:19.350Z,25.99
2019-06-26T05:12:47.788Z,26.12
2019-06-26T05:15:16.818Z,26.28
2019-06-26T05:17:45.277Z,26.43
2019-06-26T05:20:15.747Z,26.56
2019-06-26T05:22:44.185Z,26.68
2019-06-26T05:25:12.751Z,26.80
2019-06-26T05:27:41.408Z,26.96
2019-06-26T05:30:11.375Z,26.88
2019-06-26T05:32:39.813Z,27.21
2019-06-26T05:35:09.685Z,27.34
2019-06-26T05:37:38.123Z,27.41
2019-06-26T05:40:11.665Z,27.51
2019-06-26T05:42:40.109Z,27.58
2019-06-26T05:45:09.397Z,27.66
2019-06-26T05:47:37.861Z,27.72
2019-06-26T05:50:16.237Z,27.80
2019-06-26T05:52:44.691Z,27.81
2019-06-26T05:55:14.365Z,27.88
2019-06-26T05:57:42.820Z,27.93
2019-06-26T06:00:14.661Z,27.99
2019-06-26T06:02:43.099Z,28.01
2019-06-26T06:05:12.052Z,28.07
2019-06-26T06:07:40.819Z,28.13
2019-06-26T06:10:09.390Z,28.19
2019-06-26T06:12:37.823Z,28.27
2019-06-26T06:15:09.956Z,28.31
2019-06-26T06:17:38.387Z,28.40
2019-06-26T06:20:07.600Z,28.49
2019-06-26T06:22:36.004Z,28.55
2019-06-26T06:25:05.504Z,28.64
2019-06-26T06:27:33.995Z,28.67
2019-06-26T06:30:02.655Z,28.74
2019-06-26T06:32:31.133Z,28.74
2019-06-26T06:34:59.557Z,28.76
2019-06-26T06:37:28.089Z,28.74
2019-06-26T06:39:56.506Z,28.75
2019-06-26T06:42:24.943Z,28.76
2019-06-26T06:44:53.378Z,28.72
2019-06-26T06:47:21.808Z,28.79
2019-06-26T06:49:50.251Z,28.79
2019-06-26T06:52:18.680Z,28.80
2019-06-26T06:54:47.203Z,28.80
2019-06-26T06:57:15.698Z,28.70
2019-06-26T06:59:44.151Z,28.72
2019-06-26T07:02:12.575Z,28.78
2019-06-26T07:04:41.360Z,28.76
2019-06-26T07:07:09.762Z,28.76
2019-06-26T07:09:38.201Z,28.79
2019-06-26T07:12:06.642Z,28.78
2019-06-26T07:14:35.069Z,28.80
2019-06-26T07:17:16.094Z,28.87
2019-06-26T07:19:33.674Z,28.85
2019-06-26T07:22:02.112Z,28.89
2019-06-26T07:24:30.547Z,28.95
2019-06-26T07:26:58.978Z,28.98
2019-06-26T07:29:27.414Z,28.99
2019-06-26T07:31:55.861Z,29.02
2019-06-26T07:34:24.325Z,29.05
2019-06-26T07:36:52.754Z,29.07
2019-06-26T07:39:21.198Z,29.07
2019-06-26T07:41:49.647Z,29.17
2019-06-26T07:44:18.167Z,29.21
2019-06-26T07:46:46.599Z,29.23
2019-06-26T07:49:15.016Z,29.25
2019-06-26T07:51:43.445Z,29.29
2019-06-26T07:54:11.870Z,29.31
2019-06-26T07:56:40.321Z,29.33
2019-06-26T07:59:08.746Z,29.38
2019-06-26T08:01:37.208Z,29.43
2019-06-26T08:04:05.668Z,29.42
2019-06-26T08:06:34.090Z,29.50
2019-06-26T08:09:02.815Z,29.51
2019-06-26T08:11:31.239Z,29.55
2019-06-26T08:13:59.692Z,29.52
2019-06-26T08:16:28.123Z,29.58
2019-06-26T08:18:56.541Z,29.56
2019-06-26T08:21:24.979Z,29.54
2019-06-26T08:23:53.410Z,29.56
2019-06-26T08:26:21.911Z,29.62
2019-06-26T08:28:50.361Z,29.63
2019-06-26T08:31:18.771Z,29.70
2019-06-26T08:33:49.040Z,29.71
2019-06-26T08:36:17.464Z,29.80
2019-06-26T08:38:45.902Z,29.84
2019-06-26T08:41:14.320Z,29.97
2019-06-26T08:43:42.834Z,30.06
2019-06-26T08:46:11.264Z,30.17
2019-06-26T08:48:40.787Z,30.30
2019-06-26T08:51:08.698Z,30.40
2019-06-26T08:53:37.073Z,30.82
2019-06-26T08:56:05.489Z,30.51
2019-06-26T08:58:33.941Z,30.60
2019-06-26T09:01:02.386Z,30.65
2019-06-26T09:03:30.812Z,30.64
2019-06-26T09:05:59.636Z,30.67
2019-06-26T09:08:28.212Z,30.71
2019-06-26T09:10:56.819Z,30.73
2019-06-26T09:13:25.213Z,30.90
2019-06-26T09:15:53.642Z,30.98
2019-06-26T09:18:35.043Z,31.14
2019-06-26T09:20:52.229Z,31.37
2019-06-26T09:23:20.656Z,31.64
2019-06-26T09:25:49.156Z,31.90
2019-06-26T09:28:18.020Z,32.14
2019-06-26T09:30:46.445Z,32.41
2019-06-26T09:33:14.904Z,32.40
2019-06-26T09:35:43.336Z,32.59
2019-06-26T09:38:11.784Z,32.59
2019-06-26T09:40:40.231Z,32.65
2019-06-26T09:43:08.657Z,32.58
2019-06-26T09:45:37.091Z,32.61
2019-06-26T09:48:05.669Z,32.55
2019-06-26T09:50:34.097Z,32.67
2019-06-26T09:53:05.259Z,32.57
2019-06-26T09:55:32.708Z,32.71
2019-06-26T09:58:01.149Z,32.79
2019-06-26T10:00:30.577Z,32.85
2019-06-26T10:02:58.344Z,33.08
2019-06-26T10:05:26.852Z,33.79
2019-06-26T10:07:55.391Z,33.10
2019-06-26T10:10:23.826Z,33.16
2019-06-26T10:12:52.400Z,32.92
2019-06-26T10:15:20.972Z,33.05
2019-06-26T10:17:49.406Z,32.67
2019-06-26T10:20:18.271Z,32.90
2019-06-26T10:22:46.708Z,32.93
2019-06-26T10:25:16.510Z,33.06
2019-06-26T10:27:44.957Z,33.19
2019-06-26T10:30:13.730Z,33.27
2019-06-26T10:32:42.152Z,33.31
2019-06-26T10:35:10.876Z,33.27
2019-06-26T10:37:39.297Z,33.24
2019-06-26T10:40:08.059Z,33.16
2019-06-26T10:42:36.489Z,33.17
2019-06-26T10:45:07.344Z,32.96
2019-06-26T10:47:39.506Z,32.75
2019-06-26T10:50:06.911Z,32.80
2019-06-26T10:52:35.599Z,32.76
2019-06-26T10:55:06.188Z,32.75
2019-06-26T10:57:34.623Z,32.75
2019-06-26T11:00:04.562Z,32.62
2019-06-26T11:02:33.266Z,32.63
2019-06-26T11:05:01.745Z,32.49
2019-06-26T11:07:30.447Z,32.05
2019-06-26T11:09:58.882Z,32.45
2019-06-26T11:12:27.311Z,32.55
2019-06-26T11:14:55.834Z,32.35
2019-06-26T11:17:24.193Z,32.37
2019-06-26T11:19:55.435Z,32.38
2019-06-26T11:22:22.817Z,32.55
2019-06-26T11:24:51.587Z,32.39
2019-06-26T11:27:20.063Z,32.28
2019-06-26T11:29:48.513Z,32.11
2019-06-26T11:32:16.951Z,32.03
2019-06-26T11:34:45.450Z,31.98
2019-06-26T11:37:13.868Z,31.92
2019-06-26T11:39:42.297Z,31.87
2019-06-26T11:42:10.725Z,31.95
2019-06-26T11:44:39.159Z,32.01
2019-06-26T11:47:07.594Z,32.12
2019-06-26T11:49:36.019Z,32.10
2019-06-26T11:52:04.445Z,32.14
2019-06-26T11:54:32.894Z,32.11
2019-06-26T11:57:01.307Z,32.24
2019-06-26T11:59:29.982Z,32.20
2019-06-26T12:01:58.419Z,32.11
2019-06-26T12:04:26.854Z,32.07
2019-06-26T12:06:55.285Z,31.80
2019-06-26T12:09:23.732Z,31.82
2019-06-26T12:11:52.167Z,31.62
2019-06-26T12:14:20.591Z,31.46
2019-06-26T12:16:49.040Z,31.27
2019-06-26T12:19:19.880Z,31.19
2019-06-26T12:21:47.694Z,31.23
2019-06-26T12:24:16.191Z,31.20
2019-06-26T12:26:44.621Z,31.22
2019-06-26T12:29:13.060Z,31.15
2019-06-26T12:31:41.490Z,31.10
2019-06-26T12:34:09.932Z,31.17
2019-06-26T12:36:38.361Z,31.09
2019-06-26T12:39:07.860Z,30.91
2019-06-26T12:41:36.356Z,30.77
2019-06-26T12:44:04.961Z,30.76
2019-06-26T12:46:33.387Z,30.59
2019-06-26T12:49:01.892Z,30.64
2019-06-26T12:51:30.322Z,30.64
2019-06-26T12:53:58.755Z,30.55
2019-06-26T12:56:27.190Z,30.50
2019-06-26T12:58:59.701Z,30.30
2019-06-26T13:01:25.800Z,30.21
2019-06-26T13:03:54.221Z,30.11
2019-06-26T13:06:22.657Z,29.93
2019-06-26T13:08:51.087Z,29.80
2019-06-26T13:11:19.518Z,29.53
2019-06-26T13:14:01.404Z,29.40
2019-06-26T13:16:18.125Z,29.36
2019-06-26T13:18:46.525Z,29.43
2019-06-26T13:21:14.972Z,29.33
2019-06-26T13:23:43.383Z,29.17
2019-06-26T13:26:11.840Z,29.20
2019-06-26T13:28:40.273Z,29.14
2019-06-26T13:31:09.030Z,29.10
2019-06-26T13:33:37.548Z,29.07
2019-06-26T13:36:05.963Z,29.16
2019-06-26T13:38:34.401Z,28.97
2019-06-26T13:41:02.817Z,28.92
2019-06-26T13:43:31.249Z,28.92
2019-06-26T13:45:59.707Z,28.89
2019-06-26T13:48:28.130Z,28.79
2019-06-26T13:51:08.864Z,28.82
2019-06-26T13:53:26.729Z,28.78
2019-06-26T13:55:55.158Z,28.94
2019-06-26T13:58:23.583Z,28.93
2019-06-26T14:00:52.006Z,28.86
2019-06-26T14:03:20.420Z,28.79
2019-06-26T14:05:48.851Z,28.78
2019-06-26T14:08:17.282Z,28.75
2019-06-26T14:10:45.710Z,28.70
2019-06-26T14:13:14.169Z,28.73
2019-06-26T14:15:42.628Z,28.66
2019-06-26T14:18:11.053Z,28.69
2019-06-26T14:20:39.488Z,28.59
2019-06-26T14:23:07.907Z,28.64
2019-06-26T14:25:37.268Z,28.55
2019-06-26T14:28:04.974Z,28.30
2019-06-26T14:30:33.339Z,28.79
2019-06-26T14:33:01.765Z,28.20
2019-06-26T14:35:30.213Z,28.00
2019-06-26T14:37:58.633Z,28.07
2019-06-26T14:40:27.052Z,28.08
2019-06-26T14:42:55.480Z,27.94
2019-06-26T14:45:23.941Z,27.97
2019-06-26T14:47:52.368Z,27.85
2019-06-26T14:50:21.041Z,27.89
2019-06-26T14:52:49.472Z,27.82
2019-06-26T14:55:18.169Z,27.81
2019-06-26T14:57:46.607Z,27.82
2019-06-26T15:00:16.398Z,27.80
2019-06-26T15:02:44.858Z,27.61
2019-06-26T15:05:13.348Z,27.64
2019-06-26T15:07:41.795Z,27.61
2019-06-26T15:10:10.863Z,27.62
2019-06-26T15:12:39.324Z,27.46
2019-06-26T15:15:09.079Z,27.39
2019-06-26T15:17:37.568Z,27.23
2019-06-26T15:20:07.314Z,27.11
2019-06-26T15:22:35.730Z,26.99
2019-06-26T15:25:06.642Z,26.81
2019-06-26T15:27:35.340Z,26.60
2019-06-26T15:30:06.230Z,26.50
2019-06-26T15:32:34.651Z,26.42
2019-06-26T15:35:04.622Z,26.48
2019-06-26T15:37:33.072Z,26.47
2019-06-26T15:40:01.557Z,26.52
2019-06-26T15:42:30.616Z,26.58
2019-06-26T15:44:59.076Z,26.49
2019-06-26T15:47:27.514Z,26.51
2019-06-26T15:49:55.954Z,26.48
2019-06-26T15:52:24.505Z,26.34
2019-06-26T15:54:52.933Z,26.30
2019-06-26T15:57:21.369Z,26.25
2019-06-26T15:59:49.809Z,26.17
2019-06-26T16:02:18.240Z,26.13
2019-06-26T16:04:46.703Z,25.98
2019-06-26T16:07:15.169Z,25.89
2019-06-26T16:09:43.620Z,25.72
2019-06-26T16:12:12.047Z,25.86
2019-06-26T16:14:40.489Z,25.71
2019-06-26T16:17:26.747Z,25.80
2019-06-26T16:19:55.177Z,25.81
2019-06-26T16:22:32.400Z,25.61
2019-06-26T16:24:53.791Z,25.49
2019-06-26T16:27:22.232Z,25.39
2019-06-26T16:29:50.687Z,25.22
2019-06-26T16:32:19.127Z,25.29
2019-06-26T16:34:47.625Z,25.16
2019-06-26T16:37:16.072Z,24.93
2019-06-26T16:39:44.508Z,24.73
2019-06-26T16:42:12.944Z,24.64
2019-06-26T16:44:41.381Z,24.54
2019-06-26T16:47:09.881Z,24.42
2019-06-26T16:49:38.324Z,24.30
2019-06-26T16:52:06.761Z,24.24
2019-06-26T16:54:35.243Z,24.16
2019-06-26T16:57:03.670Z,24.09
2019-06-26T16:59:32.141Z,24.01
2019-06-26T17:02:00.567Z,23.95
2019-06-26T17:04:28.993Z,23.89
2019-06-26T17:06:57.420Z,23.90
2019-06-26T17:09:25.847Z,23.90
2019-06-26T17:11:54.286Z,23.88
2019-06-26T17:14:22.710Z,23.81
2019-06-26T17:16:51.147Z,23.61
2019-06-26T17:19:19.577Z,23.48
2019-06-26T17:21:48.013Z,23.40
2019-06-26T17:24:16.440Z,23.12
2019-06-26T17:26:44.868Z,22.97
2019-06-26T17:29:13.290Z,22.78
2019-06-26T17:31:41.728Z,22.61
2019-06-26T17:34:10.152Z,22.46
2019-06-26T17:36:38.588Z,22.34
2019-06-26T17:39:07.656Z,22.27
2019-06-26T17:41:36.108Z,22.31
2019-06-26T17:44:04.526Z,22.33
2019-06-26T17:46:32.950Z,22.38
2019-06-26T17:49:01.406Z,22.38
2019-06-26T17:51:29.914Z,22.35
2019-06-26T17:53:58.365Z,22.20
2019-06-26T17:56:26.784Z,22.09
2019-06-26T17:58:55.256Z,22.02
2019-06-26T18:01:23.759Z,21.96
2019-06-26T18:03:52.183Z,21.85
2019-06-26T18:06:20.613Z,21.73
2019-06-26T18:08:49.036Z,21.63
2019-06-26T18:11:17.482Z,21.59
2019-06-26T18:13:45.919Z,21.45
2019-06-26T18:16:14.343Z,21.37
2019-06-26T18:18:42.779Z,21.33
2019-06-26T18:21:11.344Z,21.31
2019-06-26T18:23:39.739Z,21.23
2019-06-26T18:26:13.568Z,21.22
2019-06-26T18:28:37.600Z,21.20
2019-06-26T18:31:05.970Z,21.48
2019-06-26T18:33:34.402Z,21.11
2019-06-26T18:36:02.831Z,21.04
2019-06-26T18:38:31.270Z,21.02
2019-06-26T18:40:59.694Z,20.98
2019-06-26T18:43:28.128Z,20.99
2019-06-26T18:45:56.582Z,20.97
2019-06-26T18:48:25.171Z,20.91
2019-06-26T18:50:53.706Z,20.88
2019-06-26T18:53:22.135Z,20.79
2019-06-26T18:55:51.361Z,20.78
2019-06-26T18:58:19.799Z,20.75
2019-06-26T19:00:48.344Z,20.69
2019-06-26T19:03:16.893Z,20.58
2019-06-26T19:05:45.411Z,20.61
2019-06-26T19:08:13.868Z,20.47
2019-06-26T19:10:42.958Z,20.39
2019-06-26T19:13:11.391Z,20.32
2019-06-26T19:15:39.827Z,20.28
2019-06-26T19:18:08.281Z,20.21
2019-06-26T19:20:36.767Z,20.19
2019-06-26T19:23:05.262Z,20.11
2019-06-26T19:25:33.707Z,20.06
2019-06-26T19:28:02.186Z,20.08
2019-06-26T19:30:30.644Z,20.03
2019-06-26T19:32:59.042Z,19.99
2019-06-26T19:35:27.588Z,19.98
2019-06-26T19:37:56.036Z,19.99
2019-06-26T19:40:24.538Z,19.93
2019-06-26T19:42:52.976Z,19.92
2019-06-26T19:45:21.647Z,19.89
2019-06-26T19:47:50.083Z,19.85
2019-06-26T19:50:18.755Z,19.78
2019-06-26T19:52:47.197Z,19.79
2019-06-26T19:55:15.693Z,19.80
2019-06-26T19:57:44.121Z,19.79
2019-06-26T20:00:13.796Z,19.77
2019-06-26T20:02:42.230Z,19.76
2019-06-26T20:05:11.395Z,19.78
2019-06-26T20:07:39.826Z,19.76
2019-06-26T20:10:10.054Z,19.69
2019-06-26T20:12:38.554Z,19.65
2019-06-26T20:15:07.735Z,19.62
2019-06-26T20:17:36.161Z,19.60
2019-06-26T20:20:06.658Z,19.59
2019-06-26T20:22:35.058Z,19.48
2019-06-26T20:25:04.537Z,19.46
2019-06-26T20:27:33.024Z,19.45
2019-06-26T20:30:01.481Z,19.45
2019-06-26T20:32:30.682Z,19.39
2019-06-26T20:34:59.122Z,19.28
2019-06-26T20:37:27.583Z,19.30
2019-06-26T20:39:56.041Z,19.25
2019-06-26T20:42:24.506Z,19.21
2019-06-26T20:44:52.919Z,19.24
2019-06-26T20:47:21.348Z,19.25
2019-06-26T20:49:53.546Z,19.22
2019-06-26T20:52:19.944Z,19.24
2019-06-26T20:55:00.471Z,19.20
2019-06-26T20:57:18.626Z,19.17
2019-06-26T20:59:47.035Z,19.16
2019-06-26T21:02:15.474Z,19.12
2019-06-26T21:04:43.935Z,19.15
2019-06-26T21:07:12.378Z,19.12
2019-06-26T21:09:40.797Z,19.05
2019-06-26T21:12:09.261Z,19.05
2019-06-26T21:14:37.683Z,19.05
2019-06-26T21:17:06.139Z,18.97
2019-06-26T21:19:34.585Z,18.96
2019-06-26T21:22:03.013Z,18.90
2019-06-26T21:24:31.443Z,18.92
2019-06-26T21:26:59.894Z,18.86
2019-06-26T21:29:28.328Z,18.84
2019-06-26T21:31:56.761Z,18.84
2019-06-26T21:34:25.456Z,18.81
2019-06-26T21:36:53.882Z,18.75
2019-06-26T21:39:22.313Z,18.70
2019-06-26T21:41:50.751Z,18.65
2019-06-26T21:44:19.178Z,18.65
2019-06-26T21:46:47.624Z,18.62
2019-06-26T21:49:16.050Z,18.58
2019-06-26T21:51:44.495Z,18.55
2019-06-26T21:54:12.923Z,18.53
2019-06-26T21:56:41.360Z,18.50
2019-06-26T21:59:09.799Z,18.51
2019-06-26T22:01:38.350Z,18.53
2019-06-26T22:04:07.192Z,18.55
2019-06-26T22:06:36.050Z,18.51
2019-06-26T22:09:05.749Z,18.52
2019-06-26T22:11:34.177Z,18.51
2019-06-26T22:14:02.681Z,18.52
2019-06-26T22:16:31.237Z,18.49
2019-06-26T22:18:59.986Z,18.51
2019-06-26T22:21:28.420Z,18.44
2019-06-26T22:23:56.859Z,18.47
2019-06-26T22:26:25.312Z,18.41
2019-06-26T22:28:53.739Z,18.36
2019-06-26T22:31:22.199Z,18.33
2019-06-26T22:33:50.635Z,18.29
2019-06-26T22:36:19.068Z,18.19
2019-06-26T22:38:47.503Z,18.19
2019-06-26T22:41:15.933Z,18.18
2019-06-26T22:43:44.377Z,18.14
2019-06-26T22:46:12.826Z,18.15
2019-06-26T22:48:41.279Z,18.12
2019-06-26T22:51:09.748Z,18.06
2019-06-26T22:53:38.171Z,18.06
2019-06-26T22:56:08.196Z,18.01
2019-06-26T22:58:36.935Z,18.00
2019-06-26T23:01:05.385Z,17.97
2019-06-26T23:03:33.813Z,17.92
2019-06-26T23:06:02.254Z,17.88
2019-06-26T23:08:30.687Z,17.84
2019-06-26T23:10:59.147Z,17.80
2019-06-26T23:13:27.571Z,17.76
2019-06-26T23:15:56.098Z,17.75
2019-06-26T23:18:24.592Z,17.77
2019-06-26T23:20:52.980Z,17.74
2019-06-26T23:23:21.420Z,17.74
2019-06-26T23:25:49.888Z,17.67
2019-06-26T23:28:18.330Z,17.67
2019-06-26T23:30:46.763Z,17.69
2019-06-26T23:33:15.247Z,17.66
2019-06-26T23:35:43.687Z,17.64
2019-06-26T23:38:12.130Z,17.55
2019-06-26T23:40:40.553Z,17.54
2019-06-26T23:43:09.048Z,17.43
2019-06-26T23:45:37.451Z,17.32
2019-06-26T23:48:06.353Z,17.23
2019-06-26T23:50:34.784Z,17.15
2019-06-26T23:53:03.212Z,17.05
2019-06-26T23:55:31.788Z,17.03
2019-06-26T23:58:00.232Z,16.92
